Time;durP1;ratioP1;P1;durP2;ratioP2;P2;SDS_P1;SDS_P2;PMS_P1;PMS_P2;Temp;Humidity;BMP_temperature;BMP_pressure;BME280_temperature;BME280_humidity;BME280_pressure;Samples;Min_cycle;Max_cycle;Signal;HPM_P1;HPM_P2
2022/04/15 03:01:18;;;;;;;15.63;8.98;;;6.80;99.90;;;;;;5644204;23;20050;-84
2022/04/15 03:03:44;;;;;;;16.45;8.88;;;6.90;99.90;;;;;;4998126;28;20034;-85
2022/04/15 03:06:09;;;;;;;16.20;8.95;;;6.90;99.90;;;;;;4997839;28;20034;-81
2022/04/15 03:08:35;;;;;;;15.95;8.52;;;6.90;99.90;;;;;;5014379;28;20210;-84
2022/04/15 03:11:00;;;;;;;15.27;8.95;;;6.90;99.90;;;;;;5014433;28;20469;-85
2022/04/15 03:13:27;;;;;;;16.52;8.82;;;7.00;99.90;;;;;;5014029;28;20409;-85
2022/04/15 03:15:53;;;;;;;14.60;8.77;;;7.00;99.90;;;;;;5014305;28;20073;-84
2022/04/15 03:18:18;;;;;;;16.58;9.15;;;7.00;99.90;;;;;;5013940;28;20104;-84
2022/04/15 03:20:44;;;;;;;15.10;8.10;;;7.00;99.90;;;;;;5013843;28;20099;-85
2022/04/15 03:23:10;;;;;;;14.32;8.20;;;7.10;99.90;;;;;;5014338;28;20072;-85
2022/04/15 03:25:35;;;;;;;16.63;7.72;;;7.00;99.90;;;;;;5013965;28;20409;-85
2022/04/15 03:28:01;;;;;;;15.13;8.80;;;7.10;99.90;;;;;;4997823;28;20447;-85
2022/04/15 03:30:27;;;;;;;18.60;8.85;;;7.10;99.90;;;;;;5014000;28;20037;-85
2022/04/15 03:32:53;;;;;;;14.15;8.63;;;7.10;99.90;;;;;;5014179;28;20050;-85
2022/04/15 03:35:22;;;;;;;20.45;8.68;;;7.10;99.90;;;;;;5014169;28;20042;-84
2022/04/15 03:37:51;;;;;;;17.23;8.80;;;7.20;99.90;;;;;;4996810;28;20073;-84
2022/04/15 03:40:18;;;;;;;14.02;8.35;;;7.20;99.90;;;;;;5013740;28;20045;-85
2022/04/15 03:42:49;;;;;;;14.88;8.35;;;7.20;99.90;;;;;;5013699;28;20050;-84
2022/04/15 03:45:18;;;;;;;15.10;8.55;;;7.30;99.90;;;;;;5014539;28;20096;-86
2022/04/15 03:47:44;;;;;;;16.58;8.40;;;7.30;99.90;;;;;;5013708;28;20042;-84
2022/04/15 03:50:11;;;;;;;13.73;8.18;;;7.30;99.90;;;;;;4997491;28;20052;-84
2022/04/15 03:52:42;;;;;;;19.05;9.20;;;7.30;99.90;;;;;;5013801;28;20127;-85
2022/04/15 03:55:19;;;;;;;19.15;8.55;;;7.40;99.90;;;;;;4997520;28;20073;-85
2022/04/15 03:57:45;;;;;;;13.60;8.40;;;7.40;99.90;;;;;;4997222;28;20536;-85
2022/04/15 04:00:19;;;;;;;15.98;9.10;;;7.50;99.90;;;;;;5015063;28;20109;-85
2022/04/15 04:02:49;;;;;;;16.38;8.50;;;7.50;99.90;;;;;;5013531;28;20104;-85
2022/04/15 04:05:15;;;;;;;15.85;8.05;;;7.50;99.90;;;;;;4997253;28;20050;-84
2022/04/15 04:07:42;;;;;;;15.73;8.05;;;7.50;99.90;;;;;;4996857;28;20049;-85
2022/04/15 04:10:08;;;;;;;12.48;8.02;;;7.50;99.90;;;;;;5013415;28;20046;-85
2022/04/15 04:12:34;;;;;;;15.68;8.55;;;7.60;99.90;;;;;;5013528;28;20045;-85
2022/04/15 04:15:05;;;;;;;16.85;8.43;;;7.50;99.90;;;;;;5013718;28;20489;-85
2022/04/15 04:17:31;;;;;;;15.85;8.82;;;7.60;99.90;;;;;;5013600;28;20053;-85
2022/04/15 04:19:56;;;;;;;17.40;8.52;;;7.60;99.90;;;;;;4996369;28;20051;-85
2022/04/15 04:22:27;;;;;;;16.27;8.73;;;7.60;99.90;;;;;;5013267;28;20046;-85
2022/04/15 04:24:53;;;;;;;16.33;8.10;;;7.60;99.90;;;;;;5013686;28;20052;-85
2022/04/15 04:27:18;;;;;;;14.07;7.90;;;7.60;99.90;;;;;;5013366;28;20042;-85
2022/04/15 04:29:44;;;;;;;15.75;7.82;;;7.70;99.90;;;;;;5013218;28;20049;-84
2022/04/15 04:32:09;;;;;;;16.67;8.00;;;7.70;99.90;;;;;;5014562;28;20038;-84
2022/04/15 04:34:35;;;;;;;13.77;8.07;;;7.70;99.90;;;;;;5013675;28;20476;-84
2022/04/15 04:37:01;;;;;;;12.45;6.95;;;7.70;99.90;;;;;;4996918;28;20048;-84
2022/04/15 04:39:29;;;;;;;12.43;7.80;;;7.80;99.90;;;;;;4997231;28;20077;-85
2022/04/15 04:41:56;;;;;;;13.80;7.65;;;7.80;99.90;;;;;;5013269;28;20050;-84
2022/04/15 04:44:22;;;;;;;13.35;7.93;;;7.90;99.90;;;;;;5012531;28;20050;-85
2022/04/15 04:46:48;;;;;;;12.70;7.50;;;7.90;99.90;;;;;;5013267;28;20034;-85
2022/04/15 04:49:13;;;;;;;13.27;7.70;;;7.90;99.90;;;;;;5000254;28;20048;-84
2022/04/15 04:51:39;;;;;;;16.27;7.70;;;7.90;99.90;;;;;;5016702;28;20121;-85
2022/04/15 04:54:05;;;;;;;12.52;7.55;;;7.90;99.90;;;;;;5016924;28;20042;-84
2022/04/15 04:56:31;;;;;;;11.82;7.25;;;7.90;99.90;;;;;;5016565;28;20064;-84
2022/04/15 04:58:58;;;;;;;13.02;7.30;;;8.00;99.90;;;;;;5016920;28;20080;-85
2022/04/15 05:01:23;;;;;;;14.63;7.20;;;7.90;99.90;;;;;;5016837;28;20053;-86
2022/04/15 05:03:49;;;;;;;13.85;7.72;;;8.00;99.90;;;;;;5018443;28;20040;-84
2022/04/15 05:06:17;;;;;;;13.40;7.60;;;8.00;99.90;;;;;;5015772;28;20042;-85
2022/04/15 05:08:42;;;;;;;12.70;7.60;;;8.10;99.90;;;;;;5016819;28;20049;-85
2022/04/15 05:11:08;;;;;;;13.07;7.57;;;8.10;99.90;;;;;;5000072;28;20033;-85
2022/04/15 05:13:34;;;;;;;11.35;7.30;;;8.10;99.90;;;;;;5016711;28;20054;-85
2022/04/15 05:15:59;;;;;;;14.02;7.85;;;8.10;99.90;;;;;;5016191;28;20048;-84
2022/04/15 05:18:25;;;;;;;13.13;7.63;;;8.10;99.90;;;;;;5017701;28;20046;-84
2022/04/15 05:20:50;;;;;;;12.27;8.13;;;8.10;99.90;;;;;;5016366;28;20490;-84
2022/04/15 05:23:16;;;;;;;14.57;7.80;;;8.10;99.90;;;;;;5016097;28;20452;-85
2022/04/15 05:25:42;;;;;;;13.88;7.78;;;8.10;99.90;;;;;;4999569;28;20046;-85
2022/04/15 05:28:08;;;;;;;14.48;8.73;;;8.20;99.90;;;;;;5015884;28;20042;-84
2022/04/15 05:30:35;;;;;;;19.67;10.55;;;8.20;99.90;;;;;;5015853;28;20042;-84
2022/04/15 05:33:01;;;;;;;17.35;9.35;;;8.20;99.90;;;;;;5015951;28;20038;-84
2022/04/15 05:35:26;;;;;;;17.02;9.77;;;8.20;99.90;;;;;;5018103;28;20125;-86
2022/04/15 05:37:52;;;;;;;16.50;9.57;;;8.20;99.90;;;;;;5016264;28;20046;-84
2022/04/15 05:40:18;;;;;;;19.17;9.80;;;8.20;99.90;;;;;;5015320;28;20046;-86
2022/04/15 05:42:43;;;;;;;18.85;10.05;;;8.20;99.90;;;;;;5015600;28;20045;-83
2022/04/15 05:45:09;;;;;;;15.73;9.77;;;8.20;99.90;;;;;;5015686;28;20041;-86
2022/04/15 05:47:36;;;;;;;14.40;9.20;;;8.20;99.90;;;;;;4999543;28;20049;-85
2022/04/15 05:50:01;;;;;;;14.93;8.38;;;8.20;99.90;;;;;;5016010;28;20446;-85
2022/04/15 05:52:27;;;;;;;13.85;8.27;;;8.20;99.90;;;;;;5015275;28;20077;-86
2022/04/15 05:54:53;;;;;;;14.40;8.30;;;8.20;99.90;;;;;;5015909;28;20044;-86
2022/04/15 05:57:19;;;;;;;13.23;7.55;;;8.30;99.90;;;;;;5015754;28;20049;-83
2022/04/15 05:59:45;;;;;;;12.73;7.38;;;8.30;99.90;;;;;;5016188;28;20042;-85
2022/04/15 06:02:10;;;;;;;11.25;7.75;;;8.30;99.90;;;;;;5015706;28;20509;-84
2022/04/15 06:04:36;;;;;;;12.63;7.32;;;8.30;99.90;;;;;;5015660;28;20042;-84
2022/04/15 06:07:02;;;;;;;12.95;7.88;;;8.30;99.90;;;;;;5015369;28;20066;-83
2022/04/15 06:09:28;;;;;;;11.77;7.18;;;8.40;99.90;;;;;;5015776;28;20053;-84
2022/04/15 06:11:55;;;;;;;11.45;7.38;;;8.40;99.90;;;;;;5016788;28;20044;-83
2022/04/15 06:14:22;;;;;;;10.65;6.80;;;8.40;99.90;;;;;;5015742;28;20100;-86
2022/04/15 06:16:48;;;;;;;10.15;7.13;;;8.40;99.90;;;;;;5015296;28;20041;-85
2022/04/15 06:19:14;;;;;;;10.15;6.90;;;8.40;99.90;;;;;;5015393;28;20065;-85
2022/04/15 06:21:40;;;;;;;11.10;6.75;;;8.50;99.90;;;;;;4998924;28;20050;-82
2022/04/15 06:24:08;;;;;;;9.10;6.80;;;8.50;99.90;;;;;;5014495;28;20081;-84
2022/04/15 06:26:34;;;;;;;10.50;6.55;;;8.50;99.90;;;;;;5015299;28;20482;-85
2022/04/15 06:29:00;;;;;;;9.10;6.15;;;8.50;99.90;;;;;;5014826;28;20122;-83
2022/04/15 06:31:26;;;;;;;9.13;6.78;;;8.60;99.90;;;;;;5014836;28;20569;-83
2022/04/15 06:33:52;;;;;;;10.82;6.05;;;8.60;99.90;;;;;;5014617;28;20505;-71
2022/04/15 06:36:19;;;;;;;8.23;5.55;;;8.60;99.90;;;;;;5015469;28;20130;-84
2022/04/15 06:38:45;;;;;;;8.27;5.47;;;8.60;99.90;;;;;;5016165;28;20053;-83
2022/04/15 06:41:11;;;;;;;9.48;5.97;;;8.60;99.90;;;;;;5015988;28;20356;-83
2022/04/15 06:43:36;;;;;;;6.55;4.82;;;8.70;99.90;;;;;;5014504;28;20049;-83
2022/04/15 06:46:03;;;;;;;7.43;4.80;;;8.70;99.90;;;;;;4997675;28;20044;-85
2022/04/15 06:48:29;;;;;;;5.93;4.22;;;8.70;99.90;;;;;;4998079;28;20121;-84
2022/04/15 06:50:55;;;;;;;6.45;4.30;;;8.70;99.90;;;;;;5014525;28;20042;-83
2022/04/15 06:53:23;;;;;;;6.63;4.00;;;8.70;99.90;;;;;;5014128;28;20034;-84
2022/04/15 06:55:53;;;;;;;5.93;3.63;;;8.60;99.90;;;;;;5015793;28;20172;-84
2022/04/15 06:58:19;;;;;;;4.75;3.35;;;8.60;99.90;;;;;;5013874;28;20046;-84
2022/04/15 07:00:48;;;;;;;6.00;4.20;;;8.60;99.90;;;;;;5014008;28;20440;-83
2022/04/15 07:03:14;;;;;;;5.65;4.28;;;8.60;99.90;;;;;;5013346;28;20470;-83
2022/04/15 07:05:40;;;;;;;7.30;4.32;;;8.50;99.90;;;;;;5015131;28;20038;-84
2022/04/15 07:08:10;;;;;;;7.72;4.05;;;8.50;99.90;;;;;;5014225;28;20520;-84
2022/04/15 07:10:37;;;;;;;5.00;3.70;;;8.50;99.90;;;;;;4997426;28;20121;-84
2022/04/15 07:13:03;;;;;;;6.50;3.60;;;8.40;99.90;;;;;;5013938;28;20446;-84
2022/04/15 07:15:29;;;;;;;5.00;3.60;;;8.40;99.90;;;;;;5014310;28;20037;-83
2022/04/15 07:17:56;;;;;;;7.15;4.35;;;8.40;99.90;;;;;;4998236;28;20042;-84
2022/04/15 07:20:22;;;;;;;7.00;4.05;;;8.40;99.90;;;;;;5015767;28;20033;-84
2022/04/15 07:22:53;;;;;;;5.32;3.58;;;8.40;99.90;;;;;;5015400;28;20389;-84
2022/04/15 07:25:19;;;;;;;7.18;3.72;;;8.40;99.90;;;;;;5014823;28;20056;-85
2022/04/15 07:27:44;;;;;;;6.25;3.70;;;8.40;99.90;;;;;;5016131;28;20117;-82
2022/04/15 07:30:10;;;;;;;5.80;3.67;;;8.40;99.90;;;;;;4999078;28;20053;-84
2022/04/15 07:32:36;;;;;;;5.38;3.25;;;8.40;99.90;;;;;;5014974;28;20049;-83
2022/04/15 07:35:02;;;;;;;4.63;3.30;;;8.40;99.90;;;;;;5015696;28;20092;-84
2022/04/15 07:37:27;;;;;;;5.10;3.80;;;8.40;99.90;;;;;;5015672;28;20096;-85
2022/04/15 07:39:53;;;;;;;6.80;3.63;;;8.50;99.90;;;;;;5016064;28;20377;-82
2022/04/15 07:42:18;;;;;;;6.25;4.10;;;8.50;99.90;;;;;;5016345;28;20477;-84
2022/04/15 07:44:45;;;;;;;5.22;3.88;;;8.50;99.90;;;;;;5014678;28;20041;-84
2022/04/15 07:47:10;;;;;;;6.78;3.95;;;8.50;99.90;;;;;;5015402;28;20042;-84
2022/04/15 07:49:36;;;;;;;10.73;4.30;;;8.50;99.90;;;;;;4998604;28;20052;-84
2022/04/15 07:52:04;;;;;;;7.32;4.55;;;8.50;99.90;;;;;;4997624;28;20046;-84
2022/04/15 07:54:31;;;;;;;9.15;5.25;;;8.40;99.90;;;;;;4999408;28;20459;-83
2022/04/15 07:56:57;;;;;;;7.70;4.60;;;8.40;99.90;;;;;;5017335;28;20065;-84
2022/04/15 07:59:22;;;;;;;9.15;5.05;;;8.50;99.90;;;;;;5015142;28;20128;-83
2022/04/15 08:01:48;;;;;;;12.23;5.88;;;8.60;99.90;;;;;;5016661;28;20056;-84
2022/04/15 08:04:13;;;;;;;10.15;6.13;;;8.60;99.90;;;;;;5014897;28;20498;-83
2022/04/15 08:06:39;;;;;;;10.05;6.40;;;8.60;99.90;;;;;;5015010;28;20029;-81
2022/04/15 08:09:05;;;;;;;15.40;7.07;;;8.70;99.90;;;;;;5016944;28;20370;-82
2022/04/15 08:11:31;;;;;;;12.18;7.32;;;8.80;99.90;;;;;;5015837;28;20037;-84
2022/04/15 08:13:57;;;;;;;12.52;6.78;;;8.80;99.90;;;;;;5015301;28;20046;-83
2022/04/15 08:16:24;;;;;;;10.57;6.80;;;8.90;99.90;;;;;;5014799;28;20394;-83
2022/04/15 08:18:50;;;;;;;12.30;6.82;;;8.90;99.90;;;;;;5016687;28;20042;-84
2022/04/15 08:21:17;;;;;;;10.55;7.22;;;9.00;99.90;;;;;;5016568;28;20037;-83
2022/04/15 08:23:43;;;;;;;13.68;8.13;;;9.10;99.90;;;;;;5018600;28;20474;-83
2022/04/15 08:26:13;;;;;;;12.30;7.43;;;9.10;99.90;;;;;;5002394;28;20077;-80
2022/04/15 08:28:39;;;;;;;16.17;7.70;;;9.20;99.90;;;;;;5020386;28;20076;-82
2022/04/15 08:31:04;;;;;;;13.90;7.85;;;9.20;99.90;;;;;;5018516;28;20030;-78
2022/04/15 08:33:30;;;;;;;12.82;7.95;;;9.30;99.90;;;;;;5018802;28;20038;-80
2022/04/15 08:35:56;;;;;;;13.98;8.57;;;9.40;99.90;;;;;;5018807;28;20069;-79
2022/04/15 08:38:21;;;;;;;14.27;8.60;;;9.40;99.90;;;;;;5016778;28;20042;-79
2022/04/15 08:40:50;;;;;;;13.93;8.20;;;9.50;99.90;;;;;;5019117;28;20038;-81
2022/04/15 08:43:15;;;;;;;15.98;8.13;;;9.60;99.90;;;;;;5016417;28;20124;-81
2022/04/15 08:45:42;;;;;;;13.95;9.00;;;9.70;99.90;;;;;;5017474;28;20025;-81
2022/04/15 08:48:08;;;;;;;16.92;9.05;;;9.80;99.90;;;;;;5018021;28;20049;-79
2022/04/15 08:50:34;;;;;;;15.68;8.60;;;10.00;99.90;;;;;;5016757;28;20120;-80
2022/04/15 08:53:00;;;;;;;14.73;8.68;;;10.10;99.90;;;;;;5017057;28;20118;-80
2022/04/15 08:55:28;;;;;;;13.93;8.52;;;10.10;99.90;;;;;;5016297;28;20052;-79
2022/04/15 08:57:55;;;;;;;15.02;8.32;;;10.20;99.90;;;;;;5017264;28;20084;-81
2022/04/15 09:00:22;;;;;;;15.38;8.20;;;10.20;99.90;;;;;;5017474;28;20053;-74
2022/04/15 09:02:49;;;;;;;14.73;8.00;;;10.20;99.90;;;;;;5016917;28;20053;-82
2022/04/15 09:05:20;;;;;;;14.05;7.25;;;10.20;99.90;;;;;;5016773;28;20049;-81
2022/04/15 09:07:46;;;;;;;16.25;8.13;;;10.20;99.90;;;;;;5000254;28;20046;-83
2022/04/15 09:10:12;;;;;;;18.67;8.60;;;10.20;99.90;;;;;;5001703;28;20042;-82
2022/04/15 09:12:40;;;;;;;14.40;8.05;;;10.20;99.90;;;;;;5017731;28;20049;-83
2022/04/15 09:15:08;;;;;;;17.73;8.55;;;10.20;99.90;;;;;;5020240;28;20141;-79
2022/04/15 09:17:37;;;;;;;15.50;8.10;;;10.20;99.90;;;;;;5029338;28;20132;-79
2022/04/15 09:20:10;;;;;;;16.10;8.30;;;10.30;99.90;;;;;;5027693;28;20113;-81
2022/04/15 09:22:37;;;;;;;14.57;7.55;;;10.30;99.90;;;;;;5018165;28;20042;-82
2022/04/15 09:25:03;;;;;;;13.77;7.53;;;10.30;99.90;;;;;;5000181;28;20090;-82
2022/04/15 09:27:29;;;;;;;13.77;7.85;;;10.40;99.90;;;;;;4999171;28;20124;-82
2022/04/15 09:29:55;;;;;;;18.27;7.95;;;10.40;99.90;;;;;;5016893;28;20080;-81
2022/04/15 09:32:22;;;;;;;16.70;8.30;;;10.40;99.90;;;;;;5017048;28;20034;-82
2022/04/15 09:35:05;;;;;;;16.98;8.43;;;10.40;99.90;;;;;;5012771;28;20038;-83
2022/04/15 09:37:34;;;;;;;16.83;7.97;;;10.50;99.90;;;;;;5015295;28;20486;-82
2022/04/15 09:40:06;;;;;;;16.48;7.95;;;10.60;99.90;;;;;;5016050;28;20045;-83
2022/04/15 09:42:35;;;;;;;13.73;7.70;;;10.70;99.90;;;;;;5016062;28;20041;-83
2022/04/15 09:45:13;;;;;;;13.90;7.05;;;10.90;99.90;;;;;;4999241;28;20045;-83
2022/04/15 09:47:39;;;;;;;12.02;6.25;;;11.00;99.90;;;;;;5016012;28;20417;-82
2022/04/15 09:50:07;;;;;;;12.40;5.60;;;11.10;99.90;;;;;;5016293;28;20077;-80
2022/04/15 09:52:32;;;;;;;11.23;6.28;;;11.20;99.90;;;;;;5014801;28;20513;-87
2022/04/15 09:55:01;;;;;;;10.35;5.22;;;11.40;99.90;;;;;;5016337;28;20069;-83
2022/04/15 09:57:33;;;;;;;10.73;5.50;;;11.50;99.90;;;;;;5014450;28;20038;-82
2022/04/15 10:00:03;;;;;;;8.65;5.40;;;11.60;99.90;;;;;;5014480;28;20038;-81
2022/04/15 10:02:32;;;;;;;7.25;4.43;;;11.80;99.90;;;;;;5015551;28;20438;-82
2022/04/15 10:04:59;;;;;;;10.55;4.80;;;11.90;99.90;;;;;;5015876;28;20127;-82
2022/04/15 10:07:25;;;;;;;9.50;4.78;;;11.90;99.90;;;;;;5015331;28;20126;-81
2022/04/15 10:09:53;;;;;;;7.18;3.97;;;12.00;99.90;;;;;;5015690;28;20060;-82
2022/04/15 10:12:18;;;;;;;10.13;4.15;;;12.00;99.90;;;;;;5013957;28;20077;-81
2022/04/15 10:14:44;;;;;;;9.25;4.00;;;12.00;99.90;;;;;;4997831;28;20080;-83
2022/04/15 10:17:12;;;;;;;9.13;4.20;;;12.10;99.90;;;;;;5014059;28;20053;-82
2022/04/15 10:19:39;;;;;;;10.25;4.20;;;12.10;99.90;;;;;;5016274;28;20048;-82
2022/04/15 10:22:06;;;;;;;10.65;4.30;;;12.20;99.90;;;;;;5015977;28;20077;-81
2022/04/15 10:24:31;;;;;;;12.65;4.78;;;12.30;99.90;;;;;;5014030;28;20050;-82
2022/04/15 10:26:59;;;;;;;7.88;3.88;;;12.40;99.90;;;;;;5014265;28;20049;-81
2022/04/15 10:29:25;;;;;;;10.07;4.03;;;12.40;99.90;;;;;;5014331;28;20481;-82
2022/04/15 10:31:53;;;;;;;7.97;4.25;;;12.40;99.90;;;;;;4997640;28;20030;-82
2022/04/15 10:34:21;;;;;;;7.35;4.03;;;12.50;99.90;;;;;;5014362;28;20504;-81
2022/04/15 10:36:47;;;;;;;7.13;4.10;;;12.60;99.90;;;;;;5015562;28;20197;-82
2022/04/15 10:39:16;;;;;;;7.55;3.70;;;12.70;99.90;;;;;;5014294;28;20080;-82
2022/04/15 10:41:44;;;;;;;8.38;3.97;;;12.70;99.90;;;;;;5014216;28;20112;-82
2022/04/15 10:44:14;;;;;;;7.97;4.13;;;12.80;99.90;;;;;;5015117;28;20348;-81
2022/04/15 10:46:40;;;;;;;7.63;4.35;;;12.90;99.90;;;;;;4998549;28;20365;-82
2022/04/15 10:49:23;;;;;;;6.28;4.00;;;12.90;99.90;;;;;;5014475;28;20363;-81
2022/04/15 10:52:01;;;;;;;6.75;3.72;;;12.90;99.90;;;;;;5013255;28;20056;-81
2022/04/15 10:54:40;;;;;;;6.45;3.72;;;12.90;99.90;;;;;;5014125;28;20399;-81
2022/04/15 10:57:18;;;;;;;6.03;3.42;;;12.90;99.90;;;;;;5013374;28;20172;-80
2022/04/15 11:02:43;;;;;;;9.48;4.32;;;12.90;99.90;;;;;;5013771;28;20508;-83
2022/04/15 11:05:13;;;;;;;6.07;3.78;;;13.00;99.90;;;;;;5013824;28;20121;-83
2022/04/15 11:07:58;;;;;;;9.82;4.50;;;13.10;99.90;;;;;;5014091;28;20038;-82
2022/04/15 11:10:42;;;;;;;6.60;4.53;;;13.20;99.90;;;;;;5014188;28;20132;-82
2022/04/15 11:13:20;;;;;;;8.85;4.63;;;13.10;99.90;;;;;;5013703;28;20041;-83
2022/04/15 11:16:03;;;;;;;7.10;4.20;;;13.00;99.90;;;;;;4997431;28;20037;-81
2022/04/15 11:18:50;;;;;;;8.82;3.80;;;13.10;99.90;;;;;;5013545;28;20048;-83
2022/04/15 11:21:20;;;;;;;8.65;4.10;;;13.00;99.90;;;;;;5013488;28;20042;-83
2022/04/15 11:23:48;;;;;;;9.68;3.95;;;13.00;99.90;;;;;;5013703;28;20477;-82
2022/04/15 11:26:15;;;;;;;6.93;3.75;;;13.00;99.90;;;;;;4997313;28;20053;-83
2022/04/15 11:28:44;;;;;;;6.72;4.30;;;13.00;99.90;;;;;;5013732;28;20052;-82
2022/04/15 11:31:23;;;;;;;10.25;4.53;;;12.90;99.90;;;;;;5013308;28;20321;-83
2022/04/15 11:33:49;;;;;;;8.02;4.22;;;12.90;99.90;;;;;;5013852;28;20041;-83
2022/04/15 11:36:17;;;;;;;8.20;4.43;;;12.80;99.90;;;;;;5013419;28;20148;-83
2022/04/15 11:38:47;;;;;;;8.57;4.13;;;12.70;99.90;;;;;;4995007;28;20108;-81
2022/04/15 11:41:24;;;;;;;8.52;4.32;;;12.70;99.90;;;;;;5013682;28;20053;-83
2022/04/15 11:44:04;;;;;;;7.65;4.00;;;12.70;99.90;;;;;;5014951;28;20053;-83
2022/04/15 11:46:36;;;;;;;11.60;4.88;;;12.70;99.90;;;;;;4996969;28;20399;-83
2022/04/15 11:49:22;;;;;;;8.18;4.50;;;12.70;99.90;;;;;;5012986;28;20125;-83
2022/04/15 11:51:52;;;;;;;7.60;4.60;;;12.70;99.90;;;;;;5013664;28;20053;-86
2022/04/15 11:54:22;;;;;;;10.60;5.13;;;12.70;99.90;;;;;;4997110;28;20386;-83
2022/04/15 11:56:54;;;;;;;8.95;5.32;;;12.70;99.90;;;;;;5012764;28;20517;-84
2022/04/15 11:59:19;;;;;;;13.00;5.25;;;12.70;99.90;;;;;;5013029;28;20135;-82
2022/04/15 12:01:45;;;;;;;9.07;5.03;;;12.60;99.90;;;;;;5014254;28;20497;-81
2022/04/15 12:04:12;;;;;;;7.10;4.95;;;12.70;99.90;;;;;;5014539;28;20042;-81
2022/04/15 12:06:41;;;;;;;10.18;5.22;;;12.70;99.90;;;;;;5013979;28;20455;-81
2022/04/15 12:09:10;;;;;;;11.30;5.60;;;12.80;99.90;;;;;;5014050;28;20100;-85
2022/04/15 12:11:37;;;;;;;8.57;5.00;;;12.80;99.90;;;;;;5014323;28;20481;-83
2022/04/15 12:14:05;;;;;;;11.95;5.22;;;12.80;99.90;;;;;;5014353;28;20040;-80
2022/04/15 12:16:33;;;;;;;9.95;5.40;;;12.90;99.90;;;;;;5013186;28;20390;-83
2022/04/15 12:18:59;;;;;;;9.32;5.15;;;13.00;99.90;;;;;;5012886;28;20100;-82
2022/04/15 12:21:27;;;;;;;8.85;5.28;;;13.00;99.90;;;;;;5012905;28;20046;-82
2022/04/15 12:24:22;;;;;;;8.90;4.93;;;13.00;99.90;;;;;;5012489;28;20548;-82
2022/04/15 12:26:54;;;;;;;11.52;4.80;;;13.00;99.90;;;;;;5012610;28;20117;-82
2022/04/15 12:32:36;;;;;;;9.38;5.10;;;13.10;99.90;;;;;;5012411;28;20042;-82
2022/04/15 12:35:02;;;;;;;8.43;4.90;;;13.10;99.90;;;;;;5011929;28;20489;-82
2022/04/15 12:37:49;;;;;;;11.02;4.85;;;13.10;99.90;;;;;;5013647;28;20120;-82
2022/04/15 12:40:15;;;;;;;9.60;4.95;;;13.00;99.90;;;;;;5013828;28;20049;-80
2022/04/15 12:42:44;;;;;;;8.40;4.57;;;13.00;99.90;;;;;;5012341;28;20042;-81
2022/04/15 12:45:19;;;;;;;9.95;5.32;;;13.10;99.90;;;;;;5011995;28;20046;-81
2022/04/15 12:48:02;;;;;;;8.83;4.67;;;13.10;99.90;;;;;;5011922;28;20046;-83
2022/04/15 12:50:35;;;;;;;14.63;5.85;;;13.20;99.90;;;;;;5011984;28;20128;-82
2022/04/15 12:53:22;;;;;;;10.13;5.15;;;13.20;99.90;;;;;;5012574;28;20042;-82
2022/04/15 12:55:49;;;;;;;7.88;4.50;;;13.20;99.90;;;;;;5011765;28;20103;-81
2022/04/15 12:58:28;;;;;;;7.05;4.13;;;13.30;99.90;;;;;;5012481;28;20352;-81
2022/04/15 13:00:57;;;;;;;7.72;4.90;;;13.30;99.90;;;;;;5013564;28;20045;-82
2022/04/15 13:03:26;;;;;;;8.85;4.35;;;13.40;99.90;;;;;;4995495;28;20082;-82
2022/04/15 13:05:53;;;;;;;9.50;4.68;;;13.40;99.90;;;;;;5011744;28;20125;-82
2022/04/15 13:08:21;;;;;;;10.73;5.40;;;13.50;99.90;;;;;;5012042;28;20045;-82
2022/04/15 13:10:48;;;;;;;7.50;5.15;;;13.40;99.90;;;;;;5016528;28;20073;-82
2022/04/15 13:13:14;;;;;;;8.02;4.60;;;13.40;99.90;;;;;;5016833;28;20042;-82
2022/04/15 13:15:40;;;;;;;10.30;5.47;;;13.40;99.90;;;;;;5014990;28;20042;-83
2022/04/15 13:18:07;;;;;;;7.53;4.68;;;13.30;99.90;;;;;;5015422;28;20140;-82
2022/04/15 13:20:32;;;;;;;9.13;5.25;;;13.30;99.90;;;;;;5015269;28;20046;-81
2022/04/15 13:22:58;;;;;;;9.35;4.60;;;13.30;99.90;;;;;;5016798;28;20441;-81
2022/04/15 13:25:24;;;;;;;10.13;5.25;;;13.30;99.90;;;;;;5017063;28;20441;-82
2022/04/15 13:27:50;;;;;;;12.52;5.40;;;13.30;99.90;;;;;;5014905;28;20544;-80
2022/04/15 13:30:16;;;;;;;9.57;5.07;;;13.30;99.90;;;;;;5015750;28;20038;-81
2022/04/15 13:32:41;;;;;;;8.55;4.88;;;13.30;99.90;;;;;;5016473;28;20036;-81
2022/04/15 13:35:07;;;;;;;9.55;4.78;;;13.30;99.90;;;;;;5015395;28;20132;-80
2022/04/15 13:37:34;;;;;;;10.95;5.22;;;13.30;99.90;;;;;;5015162;28;20056;-82
2022/04/15 13:40:00;;;;;;;15.50;5.45;;;13.30;99.90;;;;;;5016656;28;20037;-82
2022/04/15 13:42:26;;;;;;;8.05;5.00;;;13.30;99.90;;;;;;5015040;28;20046;-81
2022/04/15 13:44:53;;;;;;;6.50;4.63;;;13.30;99.90;;;;;;5014878;28;20044;-82
2022/04/15 13:47:19;;;;;;;10.40;5.85;;;13.30;99.90;;;;;;5014822;28;20475;-82
2022/04/15 13:49:48;;;;;;;8.40;5.22;;;13.30;99.90;;;;;;5015053;28;20390;-81
2022/04/15 13:57:45;;;;;;;9.18;5.28;;;13.10;99.90;;;;;;5014787;28;20073;-81
2022/04/15 14:00:11;;;;;;;9.50;5.43;;;13.00;99.90;;;;;;5014616;28;20096;-83
2022/04/15 14:02:37;;;;;;;9.23;5.57;;;12.90;99.90;;;;;;5014510;28;20065;-81
2022/04/15 14:05:02;;;;;;;8.05;5.10;;;12.90;99.90;;;;;;5014248;28;20034;-81
2022/04/15 14:07:29;;;;;;;8.05;5.30;;;12.90;99.90;;;;;;5016991;28;20046;-78
2022/04/15 14:09:55;;;;;;;12.63;5.45;;;12.80;99.90;;;;;;5020413;28;20042;-80
2022/04/15 14:12:21;;;;;;;9.10;5.10;;;12.70;99.90;;;;;;5002523;28;20044;-81
2022/04/15 14:14:46;;;;;;;9.20;4.95;;;12.70;99.90;;;;;;5014840;28;20042;-82
2022/04/15 14:17:12;;;;;;;8.90;5.20;;;12.70;99.90;;;;;;5015356;28;20042;-80
2022/04/15 14:19:37;;;;;;;8.60;5.05;;;12.70;99.90;;;;;;5015285;28;20042;-81
2022/04/15 14:22:04;;;;;;;10.07;5.80;;;12.70;99.90;;;;;;4998497;28;20381;-81
2022/04/15 14:24:30;;;;;;;10.48;5.53;;;12.70;99.90;;;;;;5015941;28;20120;-81
2022/04/15 14:26:55;;;;;;;9.05;5.50;;;12.70;99.90;;;;;;5014896;28;20042;-82
2022/04/15 14:29:21;;;;;;;8.57;5.38;;;12.70;99.90;;;;;;5014148;28;20046;-82
2022/04/15 14:31:47;;;;;;;10.93;5.47;;;12.70;99.90;;;;;;5013910;28;20046;-82
2022/04/15 14:34:13;;;;;;;12.85;5.78;;;12.70;99.90;;;;;;5014154;28;20126;-82
2022/04/15 14:36:38;;;;;;;8.73;5.57;;;12.60;99.90;;;;;;5014763;28;20121;-82
2022/04/15 14:39:04;;;;;;;10.35;5.80;;;12.70;99.90;;;;;;5013927;28;20478;-83
2022/04/15 14:41:30;;;;;;;8.55;5.40;;;12.60;99.90;;;;;;5014000;28;20050;-81
2022/04/15 14:43:56;;;;;;;11.13;5.80;;;12.70;99.90;;;;;;5015133;28;20045;-81
2022/04/15 14:46:21;;;;;;;9.55;5.93;;;12.60;99.90;;;;;;5013593;28;20048;-82
2022/04/15 14:48:48;;;;;;;7.97;5.30;;;12.60;99.90;;;;;;4997347;28;20132;-81
2022/04/15 14:51:14;;;;;;;9.70;5.63;;;12.60;99.90;;;;;;5013523;28;20050;-81
2022/04/15 14:53:41;;;;;;;9.23;5.22;;;12.60;99.90;;;;;;5013635;28;20064;-82
2022/04/15 14:56:07;;;;;;;11.02;5.95;;;12.50;99.90;;;;;;5015319;28;20109;-81
2022/04/15 14:58:33;;;;;;;9.88;5.90;;;12.50;99.90;;;;;;5014018;28;20042;-83
2022/04/15 15:00:59;;;;;;;10.85;5.80;;;12.50;99.90;;;;;;5014775;28;20092;-82
2022/04/15 15:03:25;;;;;;;9.65;5.57;;;12.50;99.90;;;;;;5014927;28;20069;-82
2022/04/15 15:05:52;;;;;;;10.45;5.85;;;12.50;99.90;;;;;;5013107;28;20038;-82
2022/04/15 15:08:18;;;;;;;14.07;6.60;;;12.40;99.90;;;;;;5014999;28;20073;-82
2022/04/15 15:10:44;;;;;;;9.88;6.13;;;12.40;99.90;;;;;;5013482;28;20092;-84
2022/04/15 15:13:11;;;;;;;11.85;6.60;;;12.40;99.90;;;;;;5014535;28;20398;-81
2022/04/15 15:15:37;;;;;;;12.48;6.72;;;12.40;99.90;;;;;;5013439;28;20055;-82
2022/04/15 15:18:03;;;;;;;10.95;6.70;;;12.30;99.90;;;;;;5013015;28;20049;-82
2022/04/15 15:20:31;;;;;;;10.35;6.25;;;12.30;99.90;;;;;;5012936;28;20405;-81
2022/04/15 15:22:58;;;;;;;10.95;5.80;;;12.20;99.90;;;;;;4996821;28;20401;-81
2022/04/15 15:30:53;;;;;;;11.18;6.15;;;12.20;99.90;;;;;;5014364;28;20042;-81
2022/04/15 15:33:20;;;;;;;10.18;6.43;;;12.10;99.90;;;;;;5012359;28;20471;-82
2022/04/15 15:35:48;;;;;;;11.75;6.20;;;12.00;99.90;;;;;;5014570;28;20048;-82
2022/04/15 15:38:15;;;;;;;10.70;5.80;;;12.00;99.90;;;;;;5013363;28;20072;-81
2022/04/15 15:40:44;;;;;;;12.23;6.75;;;12.00;99.90;;;;;;5012879;28;20490;-83
2022/04/15 15:43:13;;;;;;;11.18;6.80;;;12.00;99.90;;;;;;4997349;28;20195;-83
2022/04/15 15:45:40;;;;;;;13.07;6.60;;;11.90;99.90;;;;;;5015146;28;20038;-83
2022/04/15 15:48:08;;;;;;;12.68;6.82;;;11.90;99.90;;;;;;4997364;28;20135;-82
2022/04/15 15:50:36;;;;;;;13.52;6.53;;;11.90;99.90;;;;;;5014721;28;20048;-83
2022/04/15 15:53:02;;;;;;;10.48;6.47;;;11.90;99.90;;;;;;5013630;28;20041;-83
2022/04/15 15:55:28;;;;;;;13.18;7.43;;;11.90;99.90;;;;;;5013430;28;20056;-82
2022/04/15 15:57:54;;;;;;;14.48;7.13;;;11.80;99.90;;;;;;5013546;28;20038;-84
2022/04/15 16:00:20;;;;;;;12.40;7.15;;;11.70;99.90;;;;;;5014864;28;20065;-84
2022/04/15 16:02:46;;;;;;;12.02;7.40;;;11.70;99.90;;;;;;5013791;28;20046;-83
2022/04/15 16:05:13;;;;;;;13.00;6.97;;;11.70;99.90;;;;;;5013526;28;20445;-83